createdAt,value
2022-08-11T00:00:34.993Z,1.50
2022-08-11T00:03:06.275Z,1.40
2022-08-11T00:05:36.051Z,1.70
2022-08-11T00:08:04.339Z,1.60
2022-08-11T00:10:32.369Z,1.52
2022-08-11T00:13:02.126Z,1.88
2022-08-11T00:15:38.093Z,1.40
2022-08-11T00:18:06.256Z,1.73
2022-08-11T00:20:38.549Z,1.77
2022-08-11T00:23:08.696Z,1.45
2022-08-11T00:25:39.398Z,1.70
2022-08-11T00:28:20.342Z,1.40
2022-08-11T00:30:48.377Z,1.90
2022-08-11T00:33:17.138Z,1.52
2022-08-11T00:35:53.751Z,1.50
2022-08-11T00:38:26.591Z,1.65
2022-08-11T00:40:56.662Z,1.50
2022-08-11T00:43:29.565Z,1.67
2022-08-11T00:46:10.387Z,1.90
2022-08-11T00:48:43.572Z,1.70
2022-08-11T00:51:16.833Z,2.33
2022-08-11T00:53:50.140Z,1.58
2022-08-11T00:56:59.814Z,1.52
2022-08-11T00:59:50.462Z,1.70
2022-08-11T01:02:19.641Z,1.73
2022-08-11T01:05:21.788Z,1.60
2022-08-11T01:08:14.581Z,1.80
2022-08-11T01:11:03.904Z,1.40
2022-08-11T01:13:48.022Z,1.80
2022-08-11T01:16:47.663Z,1.65
2022-08-11T01:20:38.532Z,1.70
2022-08-11T01:23:04.177Z,1.60
2022-08-11T01:25:57.052Z,1.65
2022-08-11T01:29:05.914Z,1.60
2022-08-11T01:32:03.681Z,1.55
2022-08-11T01:35:22.952Z,1.77
2022-08-11T01:38:20.590Z,1.50
2022-08-11T01:41:20.707Z,1.73
2022-08-11T01:44:29.674Z,1.60
2022-08-11T01:47:03.566Z,1.55
2022-08-11T01:50:07.774Z,1.58
2022-08-11T01:52:30.927Z,2.03
2022-08-11T01:55:09.004Z,1.63
2022-08-11T01:57:39.040Z,1.50
2022-08-11T02:00:09.600Z,1.85
2022-08-11T02:02:50.143Z,1.80
2022-08-11T02:05:29.107Z,1.67
2022-08-11T02:08:03.156Z,1.80
2022-08-11T02:10:52.730Z,1.67
2022-08-11T02:13:30.295Z,1.80
2022-08-11T02:16:14.979Z,1.80
2022-08-11T02:19:00.793Z,1.70
2022-08-11T02:21:48.258Z,1.70
2022-08-11T02:24:18.432Z,1.70
2022-08-11T02:26:48.462Z,2.00
2022-08-11T02:29:20.020Z,1.77
2022-08-11T02:32:29.553Z,2.00
2022-08-11T02:35:03.180Z,1.60
2022-08-11T02:37:38.394Z,1.70
2022-08-11T02:40:21.017Z,1.80
2022-08-11T02:42:58.165Z,1.90
2022-08-11T02:45:46.270Z,1.70
2022-08-11T02:48:35.438Z,1.90
2022-08-11T02:51:11.143Z,1.75
2022-08-11T02:53:42.119Z,1.52
2022-08-11T02:56:25.926Z,1.70
2022-08-11T02:59:10.398Z,1.65
2022-08-11T03:01:43.470Z,1.63
2022-08-11T03:04:13.524Z,1.92
2022-08-11T03:06:46.496Z,1.80
2022-08-11T03:09:19.010Z,1.80
2022-08-11T03:12:19.634Z,1.90
2022-08-11T03:15:07.250Z,1.95
2022-08-11T03:17:38.269Z,1.60
2022-08-11T03:20:25.137Z,1.58
2022-08-11T03:23:05.156Z,1.70
2022-08-11T03:25:52.408Z,1.60
2022-08-11T03:28:28.583Z,1.70
2022-08-11T03:31:09.781Z,1.77
2022-08-11T03:34:04.125Z,2.30
2022-08-11T03:37:37.069Z,2.30
2022-08-11T03:40:13.699Z,1.75
2022-08-11T03:42:43.995Z,1.70
2022-08-11T03:45:25.082Z,1.75
2022-08-11T03:48:05.936Z,2.05
2022-08-11T03:50:56.623Z,1.80
2022-08-11T03:53:54.848Z,1.70
2022-08-11T03:57:05.851Z,1.88
2022-08-11T04:00:02.189Z,1.77
2022-08-11T04:02:55.697Z,1.70
2022-08-11T04:05:47.900Z,1.83
2022-08-11T04:08:43.662Z,1.83
2022-08-11T04:11:41.010Z,1.90
2022-08-11T04:15:11.429Z,1.75
2022-08-11T04:18:01.527Z,1.65
2022-08-11T04:20:53.081Z,1.70
2022-08-11T04:24:35.147Z,1.90
2022-08-11T04:27:14.204Z,1.80
2022-08-11T04:30:03.591Z,1.85
2022-08-11T04:33:15.963Z,1.73
2022-08-11T04:35:53.081Z,1.70
2022-08-11T04:38:50.457Z,1.83
2022-08-11T04:42:31.700Z,2.33
2022-08-11T04:45:46.500Z,1.83
2022-08-11T04:49:05.723Z,2.03
2022-08-11T04:52:35.978Z,1.90
2022-08-11T04:55:48.465Z,1.90
2022-08-11T04:58:38.832Z,1.73
2022-08-11T05:01:37.319Z,2.05
2022-08-11T05:04:54.493Z,2.20
2022-08-11T05:07:46.030Z,2.47
2022-08-11T05:10:22.812Z,2.05
2022-08-11T05:12:54.460Z,1.70
2022-08-11T05:15:49.530Z,1.83
2022-08-11T05:18:39.819Z,1.83
2022-08-11T05:21:27.508Z,1.90
2022-08-11T05:24:15.446Z,2.00
2022-08-11T05:27:08.736Z,1.85
2022-08-11T05:30:03.322Z,2.53
2022-08-11T05:32:55.906Z,1.90
2022-08-11T05:35:59.844Z,2.00
2022-08-11T05:38:37.574Z,1.95
2022-08-11T05:41:23.535Z,1.88
2022-08-11T05:44:20.194Z,2.00
2022-08-11T05:47:08.904Z,2.03
2022-08-11T05:49:54.252Z,2.10
2022-08-11T05:52:42.035Z,2.17
2022-08-11T05:55:28.596Z,1.85
2022-08-11T05:57:57.712Z,1.90
2022-08-11T06:00:25.835Z,2.40
2022-08-11T06:02:57.180Z,1.88
2022-08-11T06:05:25.351Z,2.10
2022-08-11T06:07:55.112Z,1.90
2022-08-11T06:10:28.171Z,2.10
2022-08-11T06:12:57.016Z,2.25
2022-08-11T06:15:25.156Z,2.05
2022-08-11T06:17:54.683Z,1.77
2022-08-11T06:20:24.192Z,1.73
2022-08-11T06:22:57.396Z,2.10
2022-08-11T06:25:31.264Z,1.83
2022-08-11T06:27:59.442Z,1.60
2022-08-11T06:30:35.296Z,2.00
2022-08-11T06:33:06.921Z,1.90
2022-08-11T06:35:38.208Z,2.10
2022-08-11T06:38:07.940Z,2.33
2022-08-11T06:40:39.351Z,2.20
2022-08-11T06:43:12.017Z,2.33
2022-08-11T06:45:43.399Z,1.88
2022-08-11T06:48:17.138Z,2.10
2022-08-11T06:51:14.703Z,2.00
2022-08-11T06:54:03.453Z,1.83
2022-08-11T06:57:12.171Z,1.98
2022-08-11T06:59:57.288Z,2.10
2022-08-11T07:02:31.298Z,1.90
2022-08-11T07:05:02.663Z,1.98
2022-08-11T07:08:34.668Z,1.90
2022-08-11T07:11:32.135Z,1.85
2022-08-11T07:14:20.267Z,1.90
2022-08-11T07:16:49.724Z,1.90
2022-08-11T07:19:38.879Z,1.90
2022-08-11T07:22:25.889Z,1.73
2022-08-11T07:25:13.444Z,1.90
2022-08-11T07:28:00.840Z,1.73
2022-08-11T07:30:28.913Z,1.92
2022-08-11T07:32:57.750Z,1.88
2022-08-11T07:35:29.016Z,2.00
2022-08-11T07:38:02.263Z,1.80
2022-08-11T07:40:31.615Z,1.95
2022-08-11T07:43:00.585Z,2.10
2022-08-11T07:45:46.523Z,1.95
2022-08-11T07:51:18.185Z,1.90
2022-08-11T07:53:58.552Z,2.00
2022-08-11T07:56:54.293Z,1.50
2022-08-11T08:00:00.079Z,1.95
2022-08-11T08:02:46.759Z,1.70
2022-08-11T08:05:32.204Z,1.92
2022-08-11T08:08:17.963Z,2.00
2022-08-11T08:11:04.997Z,2.00
2022-08-11T08:13:51.045Z,1.80
2022-08-11T08:16:36.883Z,2.03
2022-08-11T08:19:04.978Z,2.20
2022-08-11T08:21:33.069Z,1.80
2022-08-11T08:24:01.443Z,2.10
2022-08-11T08:26:51.789Z,1.80
2022-08-11T08:29:37.395Z,2.35
2022-08-11T08:32:05.656Z,1.67
2022-08-11T08:34:34.030Z,1.77
2022-08-11T08:37:02.150Z,1.60
2022-08-11T08:39:31.812Z,1.98
2022-08-11T08:42:01.834Z,1.85
2022-08-11T08:44:40.887Z,1.80
2022-08-11T08:47:10.362Z,1.70
2022-08-11T08:49:42.358Z,1.80
2022-08-11T08:52:30.614Z,1.85
2022-08-11T08:55:03.939Z,1.73
2022-08-11T08:57:39.360Z,2.05
2022-08-11T09:00:13.109Z,1.92
2022-08-11T09:02:42.573Z,1.90
2022-08-11T09:05:11.210Z,1.88
2022-08-11T09:07:40.551Z,1.63
2022-08-11T09:10:10.117Z,1.65
2022-08-11T09:12:40.794Z,1.90
2022-08-11T09:15:11.721Z,1.77
2022-08-11T09:17:41.279Z,1.90
2022-08-11T09:20:10.778Z,1.67
2022-08-11T09:23:29.870Z,1.50
2022-08-11T09:26:04.475Z,1.70
2022-08-11T09:31:02.575Z,1.80
2022-08-11T09:33:30.724Z,2.08
2022-08-11T09:35:58.893Z,1.75
2022-08-11T09:38:49.478Z,1.58
2022-08-11T09:41:17.900Z,1.50
2022-08-11T09:44:12.712Z,2.05
2022-08-11T09:46:40.850Z,1.80
2022-08-11T09:49:09.006Z,1.63
2022-08-11T09:51:37.136Z,1.75
2022-08-11T09:54:09.395Z,1.58
2022-08-11T09:56:51.364Z,1.75
2022-08-11T09:59:24.069Z,1.40
2022-08-11T10:01:53.661Z,1.40
2022-08-11T10:04:32.714Z,1.80
2022-08-11T10:07:04.679Z,1.50
2022-08-11T10:09:37.520Z,1.70
2022-08-11T10:12:07.883Z,1.60
2022-08-11T10:14:55.517Z,1.40
2022-08-11T10:17:28.537Z,1.70
2022-08-11T10:20:04.191Z,1.60
2022-08-11T10:22:52.720Z,1.50
2022-08-11T10:25:39.033Z,1.35
2022-08-11T10:28:30.343Z,1.50
2022-08-11T10:31:16.727Z,1.65
2022-08-11T10:34:04.475Z,1.60
2022-08-11T10:36:34.600Z,1.55
2022-08-11T10:39:03.878Z,1.50
2022-08-11T10:42:07.441Z,1.50
2022-08-11T10:44:41.705Z,1.48
2022-08-11T10:47:30.224Z,1.45
2022-08-11T10:50:15.980Z,1.40
2022-08-11T10:53:01.877Z,1.65
2022-08-11T10:55:47.736Z,1.30
2022-08-11T10:58:33.469Z,1.40
2022-08-11T11:03:40.170Z,1.10
2022-08-11T11:06:28.531Z,1.40
2022-08-11T11:09:04.791Z,1.25
2022-08-11T11:11:54.281Z,1.17
2022-08-11T11:14:46.048Z,1.27
2022-08-11T11:17:37.119Z,1.30
2022-08-11T11:20:07.614Z,1.27
2022-08-11T11:22:41.718Z,1.30
2022-08-11T11:25:16.805Z,1.42
2022-08-11T11:28:07.242Z,1.25
2022-08-11T11:30:39.352Z,1.10
2022-08-11T11:33:12.391Z,1.48
2022-08-11T11:35:49.590Z,1.20
2022-08-11T11:38:17.758Z,1.13
2022-08-11T11:41:07.019Z,1.40
2022-08-11T11:43:35.203Z,1.23
2022-08-11T11:46:03.597Z,1.30
2022-08-11T11:48:32.633Z,1.20
2022-08-11T11:51:03.623Z,1.30
2022-08-11T11:53:31.705Z,1.25
2022-08-11T11:55:59.861Z,1.27
2022-08-11T11:58:45.872Z,1.30
2022-08-11T12:01:24.220Z,1.30
2022-08-11T12:03:52.979Z,1.30
2022-08-11T12:06:23.355Z,1.30
2022-08-11T12:08:53.039Z,1.10
2022-08-11T12:11:39.148Z,1.20
2022-08-11T12:14:10.550Z,1.33
2022-08-11T12:16:40.631Z,1.35
2022-08-11T12:19:11.577Z,1.20
2022-08-11T12:22:02.118Z,1.40
2022-08-11T12:24:48.183Z,1.30
2022-08-11T12:27:25.120Z,1.30
2022-08-11T12:29:56.619Z,1.20
2022-08-11T12:32:30.306Z,1.38
2022-08-11T12:34:58.481Z,1.30
2022-08-11T12:37:31.986Z,1.10
2022-08-11T12:40:43.732Z,1.20
2022-08-11T12:43:38.290Z,1.30
2022-08-11T12:46:09.243Z,1.40
2022-08-11T12:48:58.358Z,1.23
2022-08-11T12:52:11.442Z,1.25
2022-08-11T12:54:39.614Z,1.38
2022-08-11T12:57:36.409Z,1.52
2022-08-11T13:00:24.536Z,1.20
2022-08-11T13:03:10.223Z,1.30
2022-08-11T13:05:43.013Z,1.30
2022-08-11T13:08:14.011Z,1.20
2022-08-11T13:11:01.153Z,1.27
2022-08-11T13:13:53.852Z,1.20
2022-08-11T13:16:17.606Z,1.33
2022-08-11T13:18:46.192Z,1.30
2022-08-11T13:21:20.671Z,1.30
2022-08-11T13:23:59.617Z,1.23
2022-08-11T13:26:47.395Z,1.10
2022-08-11T13:29:21.697Z,1.23
2022-08-11T13:31:48.822Z,1.35
2022-08-11T13:34:17.227Z,1.30
2022-08-11T13:36:45.410Z,1.10
2022-08-11T13:39:13.618Z,1.40
2022-08-11T13:41:44.183Z,1.30
2022-08-11T13:44:15.935Z,1.20
2022-08-11T13:46:46.324Z,1.33
2022-08-11T13:49:16.298Z,1.52
2022-08-11T13:51:44.355Z,1.50
2022-08-11T13:54:13.511Z,1.20
2022-08-11T13:56:44.277Z,1.40
2022-08-11T13:59:12.325Z,1.40
2022-08-11T14:02:20.088Z,1.60
2022-08-11T14:04:33.532Z,1.30
2022-08-11T14:07:03.897Z,1.10
2022-08-11T14:09:37.213Z,1.30
2022-08-11T14:12:27.391Z,1.10
2022-08-11T14:14:58.918Z,1.50
2022-08-11T14:17:47.207Z,1.30
2022-08-11T14:20:38.524Z,1.30
2022-08-11T14:23:02.784Z,1.48
2022-08-11T14:25:59.443Z,1.40
2022-08-11T14:28:33.773Z,2.15
2022-08-11T14:31:05.426Z,1.20
2022-08-11T14:33:58.074Z,1.27
2022-08-11T14:36:22.786Z,1.30
2022-08-11T14:38:50.954Z,1.20
2022-08-11T14:41:36.666Z,1.20
2022-08-11T14:44:26.454Z,1.35
2022-08-11T14:47:23.197Z,1.35
2022-08-11T14:50:04.966Z,1.40
2022-08-11T14:52:46.083Z,1.25
2022-08-11T14:55:32.755Z,1.20
2022-08-11T14:58:02.896Z,1.30
2022-08-11T15:00:34.412Z,1.40
2022-08-11T15:03:11.739Z,1.27
2022-08-11T15:05:55.773Z,1.17
2022-08-11T15:08:42.257Z,1.15
2022-08-11T15:11:32.424Z,1.48
2022-08-11T15:14:01.174Z,1.30
2022-08-11T15:16:48.234Z,1.10
2022-08-11T15:19:16.839Z,1.10
2022-08-11T15:22:02.292Z,1.27
2022-08-11T15:24:30.956Z,1.48
2022-08-11T15:27:16.852Z,1.30
2022-08-11T15:32:48.892Z,1.40
2022-08-11T15:35:39.415Z,1.30
2022-08-11T15:38:08.113Z,1.38
2022-08-11T15:40:56.034Z,1.25
2022-08-11T15:43:45.475Z,1.30
2022-08-11T15:46:15.155Z,1.42
2022-08-11T15:48:46.344Z,1.30
2022-08-11T15:51:25.128Z,1.23
2022-08-11T15:53:56.924Z,1.20
2022-08-11T15:56:25.960Z,1.75
2022-08-11T15:59:42.037Z,1.40
2022-08-11T16:02:18.044Z,1.30
2022-08-11T16:04:47.551Z,2.08
2022-08-11T16:07:16.653Z,1.00
2022-08-11T16:09:47.414Z,1.48
2022-08-11T16:12:19.104Z,1.15
2022-08-11T16:15:07.559Z,1.30
2022-08-11T16:17:39.515Z,1.80
2022-08-11T16:20:10.529Z,1.42
2022-08-11T16:22:40.292Z,1.67
2022-08-11T16:27:04.682Z,1.30
2022-08-11T16:28:02.367Z,1.55
2022-08-11T16:30:31.991Z,1.20
2022-08-11T16:33:48.428Z,1.30
2022-08-11T16:36:11.292Z,1.20
2022-08-11T16:38:40.096Z,1.20
2022-08-11T16:41:11.629Z,1.20
2022-08-11T16:43:59.402Z,1.30
2022-08-11T16:46:45.140Z,1.40
2022-08-11T16:49:14.765Z,1.20
2022-08-11T16:51:44.417Z,1.25
2022-08-11T16:54:12.464Z,1.27
2022-08-11T16:56:43.168Z,1.20
2022-08-11T16:59:15.987Z,1.27
2022-08-11T17:01:47.081Z,1.20
2022-08-11T17:04:38.465Z,1.30
2022-08-11T17:07:41.736Z,1.33
2022-08-11T17:10:50.877Z,1.20
2022-08-11T17:13:24.932Z,1.00
2022-08-11T17:16:08.658Z,1.00
2022-08-11T17:18:43.439Z,1.20
2022-08-11T17:21:13.988Z,1.20
2022-08-11T17:23:55.174Z,1.40
2022-08-11T17:26:26.411Z,1.13
2022-08-11T17:28:58.403Z,1.20
2022-08-11T17:31:43.991Z,1.35
2022-08-11T17:36:57.576Z,1.17
2022-08-11T17:39:30.223Z,1.35
2022-08-11T17:42:16.704Z,1.20
2022-08-11T17:45:02.171Z,1.40
2022-08-11T17:47:47.589Z,1.20
2022-08-11T17:50:17.284Z,1.30
2022-08-11T17:53:04.156Z,1.30
2022-08-11T17:55:59.300Z,1.70
2022-08-11T17:58:44.973Z,1.50
2022-08-11T18:03:40.908Z,1.52
2022-08-11T18:06:12.784Z,1.17
2022-08-11T18:09:02.071Z,1.60
2022-08-11T18:12:11.454Z,1.50
2022-08-11T18:14:55.149Z,1.63
2022-08-11T18:17:41.107Z,1.40
2022-08-11T18:20:27.934Z,1.58
2022-08-11T18:23:13.494Z,1.35
2022-08-11T18:26:01.293Z,1.30
2022-08-11T18:28:49.407Z,1.13
2022-08-11T18:31:35.134Z,1.88
2022-08-11T18:37:09.933Z,1.38
2022-08-11T18:40:08.374Z,1.48
2022-08-11T18:42:54.232Z,1.80
2022-08-11T18:45:45.215Z,1.42
2022-08-11T18:48:37.137Z,1.63
2022-08-11T18:51:31.434Z,1.48
2022-08-11T18:54:26.100Z,1.75
2022-08-11T18:57:11.823Z,1.73
2022-08-11T19:02:48.486Z,1.88
2022-08-11T19:06:35.518Z,1.77
2022-08-11T19:08:41.374Z,1.73
2022-08-11T19:14:12.211Z,1.98
2022-08-11T19:16:57.709Z,1.90
2022-08-11T19:19:47.359Z,2.22
2022-08-11T19:22:33.558Z,2.20
2022-08-11T19:28:10.948Z,1.67
2022-08-11T19:30:56.494Z,1.73
2022-08-11T19:33:57.417Z,1.77
2022-08-11T19:36:47.941Z,1.90
2022-08-11T19:39:33.575Z,1.70
2022-08-11T19:42:19.496Z,2.05
2022-08-11T19:47:53.309Z,1.80
2022-08-11T19:50:48.870Z,1.85
2022-08-11T19:53:35.464Z,1.67
2022-08-11T19:56:21.305Z,1.90
2022-08-11T20:02:13.848Z,2.40
2022-08-11T20:04:58.054Z,2.45
2022-08-11T20:07:44.086Z,3.10
2022-08-11T20:10:30.844Z,2.80
2022-08-11T20:13:21.525Z,2.47
2022-08-11T20:16:07.236Z,2.17
2022-08-11T20:18:52.878Z,1.73
2022-08-11T20:21:38.545Z,2.10
2022-08-11T20:24:24.540Z,2.00
2022-08-11T20:30:11.081Z,2.05
2022-08-11T20:32:56.870Z,2.00
2022-08-11T20:35:42.824Z,1.98
2022-08-11T20:41:13.938Z,1.92
2022-08-11T20:44:07.492Z,1.80
2022-08-11T20:46:56.954Z,2.60
2022-08-11T20:49:50.625Z,2.28
2022-08-11T20:52:40.212Z,1.80
2022-08-11T20:55:46.199Z,2.40
2022-08-11T20:58:46.993Z,2.10
2022-08-11T21:01:41.099Z,2.42
2022-08-11T21:04:27.268Z,2.25
2022-08-11T21:07:18.562Z,2.20
2022-08-11T21:10:22.818Z,2.10
2022-08-11T21:13:25.152Z,2.10
2022-08-11T21:16:27.814Z,2.05
2022-08-11T21:20:00.453Z,2.10
2022-08-11T21:22:59.201Z,2.17
2022-08-11T21:28:37.485Z,2.10
2022-08-11T21:31:23.424Z,2.13
2022-08-11T21:34:09.046Z,2.05
2022-08-11T21:36:56.110Z,2.05
2022-08-11T21:39:41.955Z,2.20
2022-08-11T21:42:27.304Z,1.92
2022-08-11T21:45:12.791Z,2.03
2022-08-11T21:48:00.900Z,1.60
2022-08-11T21:50:46.909Z,2.33
2022-08-11T21:53:34.104Z,2.05
2022-08-11T21:56:20.032Z,1.83
2022-08-11T21:59:07.320Z,1.88
2022-08-11T22:01:53.110Z,2.30
2022-08-11T22:04:38.838Z,2.13
2022-08-11T22:07:24.619Z,2.17
2022-08-11T22:10:27.277Z,2.30
2022-08-11T22:13:17.580Z,2.10
2022-08-11T22:16:02.908Z,2.80
2022-08-11T22:18:48.457Z,2.30
2022-08-11T22:22:02.791Z,3.28
2022-08-11T22:24:41.846Z,2.30
2022-08-11T22:27:30.196Z,2.20
2022-08-11T22:30:15.689Z,2.35
2022-08-11T22:33:01.893Z,2.00
2022-08-11T22:35:47.794Z,1.90
2022-08-11T22:38:34.042Z,2.08
2022-08-11T22:41:21.624Z,1.73
2022-08-11T22:44:08.713Z,1.92
2022-08-11T22:46:54.469Z,1.85
2022-08-11T22:49:57.591Z,1.73
2022-08-11T22:52:46.551Z,1.83
2022-08-11T22:55:32.420Z,2.17
2022-08-11T22:58:17.837Z,1.70
2022-08-11T23:01:04.511Z,1.80
2022-08-11T23:03:50.547Z,2.00
2022-08-11T23:06:36.554Z,1.95
2022-08-11T23:09:22.723Z,1.85
2022-08-11T23:14:57.080Z,1.67
2022-08-11T23:17:44.305Z,1.63
2022-08-11T23:20:37.023Z,1.67
2022-08-11T23:23:26.691Z,2.10
2022-08-11T23:26:12.273Z,1.75
2022-08-11T23:29:01.961Z,1.98
2022-08-11T23:31:52.513Z,2.00
2022-08-11T23:35:03.333Z,1.83
2022-08-11T23:37:46.089Z,1.98
2022-08-11T23:40:31.689Z,1.80
2022-08-11T23:43:17.326Z,1.77
2022-08-11T23:46:02.924Z,1.77
2022-08-11T23:48:48.813Z,1.90
2022-08-11T23:51:38.696Z,1.77
2022-08-11T23:54:27.331Z,1.65
2022-08-11T23:57:13.164Z,1.42
2022-08-11T23:59:58.510Z,1.60
